Time;durP1;ratioP1;P1;durP2;ratioP2;P2;SDS_P1;SDS_P2;PMS_P1;PMS_P2;Temp;Humidity;BMP_temperature;BMP_pressure;BME280_temperature;BME280_humidity;BME280_pressure;Samples;Min_cycle;Max_cycle;Signal;HPM_P1;HPM_P2
2022/05/08 00:01:25;;;;;;;11.40;5.40;;;;;;;11.94;40.87;100368.75;5134175;27;20096;-80
2022/05/08 00:03:52;;;;;;;7.25;5.00;;;;;;;11.73;40.56;100326.72;5133579;27;20055;-79
2022/05/08 00:06:21;;;;;;;11.48;5.28;;;;;;;11.90;40.49;100347.78;5133302;27;20051;-80
2022/05/08 00:08:49;;;;;;;9.65;5.47;;;;;;;11.88;40.63;100339.94;5133430;27;20100;-80
2022/05/08 00:11:16;;;;;;;14.50;5.15;;;;;;;11.99;40.53;100363.53;5133392;27;20063;-80
2022/05/08 00:13:47;;;;;;;12.60;5.57;;;;;;;12.07;40.53;100367.94;5133467;27;20564;-80
2022/05/08 00:16:16;;;;;;;9.23;5.20;;;;;;;11.98;40.36;100340.84;5133711;27;20131;-79
2022/05/08 00:18:45;;;;;;;9.23;5.07;;;;;;;12.04;40.60;100360.06;5132558;28;20047;-80
2022/05/08 00:21:13;;;;;;;13.93;5.53;;;;;;;12.10;40.10;100351.38;5133677;28;20077;-80
2022/05/08 00:23:41;;;;;;;11.60;5.45;;;;;;;12.13;39.99;100358.38;5133879;28;20047;-80
2022/05/08 00:26:09;;;;;;;14.93;5.22;;;;;;;12.15;39.98;100352.25;5133098;28;20231;-79
2022/05/08 00:28:39;;;;;;;10.57;4.72;;;;;;;12.11;40.07;100352.25;5133599;28;20105;-79
2022/05/08 00:31:09;;;;;;;13.30;5.22;;;;;;;12.14;40.04;100361.00;5133427;27;20142;-80
2022/05/08 00:33:37;;;;;;;9.82;4.95;;;;;;;12.19;40.26;100359.28;5133588;27;20066;-79
2022/05/08 00:36:06;;;;;;;9.02;4.63;;;;;;;12.22;39.78;100361.91;5133696;27;20106;-79
2022/05/08 00:38:34;;;;;;;9.88;5.18;;;;;;;12.22;39.75;100350.56;5134535;27;20075;-78
2022/05/08 00:41:02;;;;;;;9.27;4.93;;;;;;;12.24;39.94;100357.56;5135145;28;20142;-78
2022/05/08 00:43:32;;;;;;;11.93;4.85;;;;;;;12.26;40.08;100352.31;5136587;27;20568;-78
2022/05/08 00:46:07;;;;;;;8.30;4.90;;;;;;;12.11;39.79;100324.34;5133641;27;20051;-80
2022/05/08 00:48:39;;;;;;;9.57;4.85;;;;;;;12.24;39.89;100347.09;5133271;27;20090;-79
2022/05/08 00:51:09;;;;;;;10.10;5.28;;;;;;;12.25;39.76;100358.44;5132933;27;20514;-79
2022/05/08 00:53:38;;;;;;;11.30;5.25;;;;;;;12.23;39.73;100345.31;5133005;27;20076;-79
2022/05/08 00:56:09;;;;;;;11.48;5.32;;;;;;;12.22;39.77;100338.34;5132764;28;20097;-78
2022/05/08 00:58:39;;;;;;;13.13;5.38;;;;;;;12.18;39.80;100338.34;5133155;27;20062;-79
2022/05/08 01:01:06;;;;;;;9.10;4.90;;;;;;;12.06;39.96;100320.81;5132660;27;20079;-78
2022/05/08 01:03:35;;;;;;;13.65;5.85;;;;;;;12.25;40.13;100347.97;5132788;28;20051;-78
2022/05/08 01:06:12;;;;;;;8.40;4.90;;;;;;;12.27;39.79;100336.59;5132585;28;20078;-78
2022/05/08 01:08:47;;;;;;;10.02;5.13;;;;;;;12.29;39.90;100342.72;5133518;27;20059;-80
2022/05/08 01:11:17;;;;;;;7.45;5.03;;;;;;;12.20;39.89;100336.59;5132737;27;20050;-79
2022/05/08 01:13:45;;;;;;;8.95;4.90;;;;;;;12.22;39.70;100312.16;5132971;27;20097;-80
2022/05/08 01:16:21;;;;;;;11.95;5.80;;;;;;;12.34;39.71;100334.03;5132738;28;20061;-81
2022/05/08 01:18:50;;;;;;;8.68;5.25;;;;;;;12.27;39.76;100313.03;5133105;27;20071;-80
2022/05/08 01:21:22;;;;;;;11.52;5.13;;;;;;;12.46;39.70;100334.06;5135644;27;20116;-80
2022/05/08 01:23:50;;;;;;;9.80;5.45;;;;;;;12.47;39.53;100335.81;5137004;27;20100;-79
2022/05/08 01:26:21;;;;;;;10.77;5.75;;;;;;;12.48;39.42;100333.19;5135879;27;20526;-79
2022/05/08 01:28:51;;;;;;;8.45;4.72;;;;;;;12.51;39.52;100329.72;5136426;27;20069;-80
2022/05/08 01:31:18;;;;;;;11.65;5.45;;;;;;;12.48;39.23;100335.81;5136456;27;20055;-78
2022/05/08 01:33:47;;;;;;;11.57;5.40;;;;;;;12.42;39.40;100312.22;5136150;27;20055;-79
2022/05/08 01:36:14;;;;;;;11.77;5.38;;;;;;;12.52;39.43;100325.34;5136261;27;20047;-79
2022/05/08 01:38:43;;;;;;;11.73;5.07;;;;;;;12.53;39.35;100324.47;5136113;27;20533;-78
2022/05/08 01:41:11;;;;;;;12.10;5.85;;;;;;;12.57;39.16;100326.25;5135988;27;20142;-79
2022/05/08 01:43:39;;;;;;;10.70;5.55;;;;;;;12.57;39.17;100323.63;5136207;27;20161;-79
2022/05/08 01:46:07;;;;;;;11.38;5.97;;;;;;;12.58;39.43;100317.50;5135931;27;20129;-78
2022/05/08 01:48:37;;;;;;;9.45;5.50;;;;;;;12.47;39.26;100293.88;5135948;27;20058;-78
2022/05/08 01:51:04;;;;;;;9.90;5.45;;;;;;;12.63;39.20;100323.63;5136003;27;20093;-78
2022/05/08 01:53:34;;;;;;;8.10;5.20;;;;;;;12.61;39.19;100314.91;5135934;27;20043;-78
2022/05/08 01:56:07;;;;;;;13.30;5.40;;;;;;;12.65;39.16;100317.53;5135946;27;20055;-79
2022/05/08 01:58:35;;;;;;;11.05;5.20;;;;;;;12.70;39.16;100312.28;5136048;27;20055;-79
2022/05/08 02:01:05;;;;;;;11.25;5.55;;;;;;;12.73;39.15;100317.53;5135458;27;20051;-78
2022/05/08 02:03:33;;;;;;;11.98;5.25;;;;;;;12.70;39.35;100309.66;5137417;27;20099;-78
2022/05/08 02:06:01;;;;;;;11.80;5.65;;;;;;;12.74;39.02;100315.78;5139258;27;20163;-80
2022/05/08 02:08:31;;;;;;;8.77;5.10;;;;;;;12.67;39.37;100312.28;5137462;27;20050;-79
2022/05/08 02:10:59;;;;;;;16.58;5.75;;;;;;;12.68;39.44;100298.31;5156364;27;20089;-78
2022/05/08 02:13:26;;;;;;;11.25;5.53;;;;;;;12.64;39.26;100291.31;5154679;27;20046;-78
2022/05/08 02:15:55;;;;;;;7.75;5.00;;;;;;;12.65;39.28;100288.69;5156325;27;20521;-80
2022/05/08 02:18:24;;;;;;;10.13;5.30;;;;;;;12.70;39.55;100294.81;5155944;27;20161;-79
2022/05/08 02:20:53;;;;;;;12.07;5.72;;;;;;;12.74;39.36;100303.56;5156062;27;20046;-79
2022/05/08 02:23:21;;;;;;;10.23;5.75;;;;;;;12.77;39.35;100303.56;5155929;27;20047;-79
2022/05/08 02:25:49;;;;;;;11.40;5.07;;;;;;;12.80;39.46;100286.94;5155706;27;20103;-79
2022/05/08 02:28:17;;;;;;;16.23;5.97;;;;;;;12.79;39.45;100301.81;5155752;27;20050;-79
2022/05/08 02:30:45;;;;;;;10.80;5.32;;;;;;;12.81;39.38;100304.44;5155752;27;20050;-79
2022/05/08 02:33:13;;;;;;;13.65;6.05;;;;;;;12.82;39.49;100312.31;5155513;27;20559;-79
2022/05/08 02:35:41;;;;;;;12.45;5.60;;;;;;;12.83;39.67;100321.03;5154629;27;20081;-80
2022/05/08 02:38:10;;;;;;;10.93;5.83;;;;;;;12.80;39.61;100321.03;5155421;27;20055;-80
2022/05/08 02:40:38;;;;;;;14.68;5.20;;;;;;;12.84;39.79;100310.56;5155741;27;20137;-79
2022/05/08 02:43:06;;;;;;;12.00;5.70;;;;;;;12.86;39.88;100318.41;5156063;27;20062;-79
2022/05/08 02:45:34;;;;;;;11.48;5.50;;;;;;;12.83;39.79;100308.81;5154239;27;20046;-79
2022/05/08 02:48:03;;;;;;;9.43;5.27;;;;;;;12.87;40.09;100314.94;5155398;27;20046;-80
2022/05/08 02:50:30;;;;;;;13.23;5.70;;;;;;;12.84;39.93;100307.94;5155323;27;20077;-80
2022/05/08 02:52:58;;;;;;;10.80;5.53;;;;;;;12.81;40.05;100307.06;5154390;27;20055;-79
2022/05/08 03:01:01;;;;;;;11.98;5.65;;;;;;;12.63;41.15;100292.19;5155592;27;20053;-80
2022/05/08 03:03:30;;;;;;;12.93;6.13;;;;;;;12.63;42.01;100293.06;5155081;27;20070;-80
2022/05/08 03:05:58;;;;;;;14.40;5.47;;;;;;;12.59;41.69;100282.56;5155147;27;20099;-80
2022/05/08 03:08:27;;;;;;;8.97;4.97;;;;;;;12.57;41.45;100279.94;5155183;27;20541;-79
2022/05/08 03:13:43;;;;;;;11.02;5.38;;;;;;;12.43;41.72;100282.53;5155055;27;20062;-79
2022/05/08 03:16:12;;;;;;;10.25;4.93;;;;;;;12.69;41.75;100302.66;5155161;27;20051;-78
2022/05/08 03:18:41;;;;;;;8.55;5.30;;;;;;;12.64;41.57;100307.91;5154627;27;20458;-78
2022/05/08 03:21:10;;;;;;;10.20;5.22;;;;;;;12.62;41.35;100295.66;5154819;27;20065;-80
2022/05/08 03:23:39;;;;;;;9.05;5.13;;;;;;;12.75;40.96;100305.28;5154775;27;20062;-80
2022/05/08 03:26:08;;;;;;;12.20;5.78;;;;;;;12.77;41.04;100306.16;5154122;27;20506;-79
2022/05/08 03:28:40;;;;;;;8.65;5.53;;;;;;;12.78;40.67;100293.97;5153352;27;20051;-79
2022/05/08 03:31:10;;;;;;;10.85;5.10;;;;;;;12.74;40.90;100311.44;5154580;27;20468;-79
2022/05/08 03:33:39;;;;;;;13.07;5.30;;;;;;;12.82;40.32;100300.94;5153156;27;20054;-79
2022/05/08 03:36:10;;;;;;;10.35;5.25;;;;;;;12.83;40.42;100290.44;5154363;27;20054;-78
2022/05/08 03:38:43;;;;;;;12.13;5.38;;;;;;;12.79;40.22;100283.47;5154381;27;20076;-80
2022/05/08 03:41:15;;;;;;;12.57;5.28;;;;;;;12.83;40.48;100300.94;5154627;27;20502;-79
2022/05/08 03:43:45;;;;;;;12.55;4.88;;;;;;;12.77;40.31;100276.47;5153208;27;20046;-79
2022/05/08 03:46:16;;;;;;;12.52;5.03;;;;;;;12.86;40.42;100302.69;5154469;27;20549;-78
2022/05/08 03:48:46;;;;;;;10.63;5.25;;;;;;;12.86;40.67;100302.69;5154706;27;20522;-78
2022/05/08 03:51:12;;;;;;;10.65;4.82;;;;;;;12.64;40.49;100263.34;5154916;27;20047;-79
2022/05/08 03:53:43;;;;;;;10.25;5.00;;;;;;;12.82;40.50;100288.72;5154687;27;20552;-80
2022/05/08 03:56:12;;;;;;;13.45;4.88;;;;;;;12.80;40.45;100285.22;5154348;27;20047;-80
2022/05/08 03:58:41;;;;;;;9.57;4.97;;;;;;;12.86;40.47;100289.56;5154471;27;20062;-80
2022/05/08 04:01:09;;;;;;;11.68;5.20;;;;;;;12.83;40.47;100298.31;5154285;27;20050;-80
2022/05/08 04:03:36;;;;;;;11.23;5.10;;;;;;;12.77;40.72;100311.41;5154037;27;20126;-80
2022/05/08 04:06:04;;;;;;;7.40;4.68;;;;;;;12.68;41.39;100282.56;5154077;27;20459;-80
2022/05/08 04:08:33;;;;;;;10.73;5.10;;;;;;;12.80;41.42;100311.44;5153999;27;20055;-79
2022/05/08 04:11:00;;;;;;;12.32;4.68;;;;;;;12.87;41.40;100307.06;5154333;27;20213;-80
2022/05/08 04:13:26;;;;;;;8.95;4.53;;;;;;;12.88;41.74;100306.19;5153919;27;20046;-79
2022/05/08 04:18:39;;;;;;;11.57;4.78;;;;;;;12.77;41.85;100287.81;5140311;27;20120;-79
2022/05/08 04:21:06;;;;;;;8.05;5.00;;;;;;;12.83;41.65;100290.44;5133601;27;20054;-77
2022/05/08 04:26:22;;;;;;;11.02;4.88;;;;;;;12.94;41.21;100297.47;5153403;27;20475;-79
2022/05/08 04:28:50;;;;;;;7.88;4.68;;;;;;;13.00;41.09;100281.72;5154111;27;20474;-78
2022/05/08 04:31:17;;;;;;;13.07;5.18;;;;;;;13.09;41.00;100294.84;5154039;27;20051;-79
2022/05/08 04:33:44;;;;;;;10.85;4.95;;;;;;;13.11;41.38;100288.72;5155723;27;20072;-78
2022/05/08 04:36:12;;;;;;;9.15;5.32;;;;;;;13.16;40.75;100286.09;5156922;27;20061;-79
2022/05/08 04:38:40;;;;;;;12.75;4.95;;;;;;;13.22;40.90;100278.22;5159090;27;20054;-78
2022/05/08 04:41:09;;;;;;;9.43;4.75;;;;;;;13.35;40.43;100280.88;5156091;27;20050;-79
2022/05/08 04:43:39;;;;;;;8.52;4.72;;;;;;;13.38;40.27;100280.84;5153351;27;20490;-79
2022/05/08 04:46:09;;;;;;;12.10;5.00;;;;;;;13.36;40.20;100272.09;5153685;27;20055;-79
2022/05/08 04:48:38;;;;;;;9.07;4.70;;;;;;;13.36;40.27;100273.00;5153518;27;20513;-79
2022/05/08 04:51:05;;;;;;;12.82;5.03;;;;;;;13.34;40.59;100274.75;5153728;27;20047;-79
2022/05/08 04:53:32;;;;;;;8.73;4.88;;;;;;;13.30;40.70;100273.88;5153422;27;20123;-80
2022/05/08 04:56:00;;;;;;;11.02;5.05;;;;;;;13.24;40.51;100249.38;5156221;27;20051;-81
2022/05/08 04:58:31;;;;;;;11.43;4.90;;;;;;;13.38;40.49;100259.84;5157488;27;20057;-79
2022/05/08 05:00:58;;;;;;;9.85;4.85;;;;;;;13.70;40.47;100283.41;5157544;27;20085;-79
2022/05/08 05:03:27;;;;;;;14.47;5.00;;;;;;;13.82;40.22;100270.25;5157420;27;20569;-78
2022/05/08 05:05:54;;;;;;;8.65;4.72;;;;;;;14.06;39.61;100261.41;5157520;27;20318;-80
2022/05/08 05:08:21;;;;;;;12.88;5.05;;;;;;;14.30;39.17;100252.53;5156954;27;20456;-78
2022/05/08 05:10:48;;;;;;;8.80;4.65;;;;;;;14.87;38.28;100262.69;5157278;27;20074;-79
2022/05/08 05:13:15;;;;;;;12.80;4.85;;;;;;;15.24;37.46;100250.97;5157237;27;20050;-78
2022/05/08 05:15:43;;;;;;;11.90;4.55;;;;;;;15.36;37.30;100253.50;5156974;27;20058;-79
2022/05/08 05:18:13;;;;;;;13.85;5.30;;;;;;;15.59;36.75;100255.88;5157226;27;20077;-79
2022/05/08 05:20:41;;;;;;;9.15;5.00;;;;;;;16.04;36.19;100260.66;5157196;27;20059;-79
2022/05/08 05:23:08;;;;;;;10.05;5.05;;;;;;;16.45;35.39;100254.81;5156522;27;20080;-78
2022/05/08 05:25:35;;;;;;;12.40;5.25;;;;;;;16.73;34.80;100255.25;5153812;27;20150;-78
2022/05/08 05:28:02;;;;;;;10.60;5.25;;;;;;;17.12;33.87;100250.28;5151372;27;20136;-79
2022/05/08 05:30:34;;;;;;;8.90;5.57;;;;;;;17.37;33.28;100236.63;5144232;27;20050;-79
2022/05/08 05:33:01;;;;;;;8.05;5.10;;;;;;;17.49;33.00;100240.84;5156975;27;20057;-78
2022/05/08 05:35:28;;;;;;;8.40;5.10;;;;;;;17.69;32.85;100241.31;5156671;27;20053;-79
2022/05/08 05:37:55;;;;;;;9.15;4.85;;;;;;;17.55;32.62;100219.56;5156871;27;20043;-77
2022/05/08 05:40:23;;;;;;;11.38;5.43;;;;;;;17.95;32.49;100245.22;5156626;27;20099;-79
2022/05/08 05:42:51;;;;;;;10.32;5.68;;;;;;;18.01;32.05;100247.75;5156894;27;20141;-78
2022/05/08 05:45:19;;;;;;;14.00;5.20;;;;;;;18.06;31.83;100235.28;5156798;27;20061;-78
2022/05/08 05:47:54;;;;;;;7.28;5.15;;;;;;;17.60;32.44;100215.94;5156437;27;20043;-79
2022/05/08 05:50:24;;;;;;;7.90;5.05;;;;;;;17.31;32.96;100226.19;5156638;27;20103;-80
2022/05/08 05:52:53;;;;;;;9.48;5.28;;;;;;;17.68;32.37;100223.72;5157239;27;20050;-79
2022/05/08 05:55:22;;;;;;;11.60;5.10;;;;;;;17.99;32.25;100221.34;5157130;27;20468;-80
2022/05/08 05:57:51;;;;;;;11.35;4.93;;;;;;;18.17;31.91;100221.84;5156617;27;20452;-78
2022/05/08 06:00:23;;;;;;;9.82;5.15;;;;;;;18.35;31.48;100188.84;5155909;27;20129;-79
2022/05/08 06:02:50;;;;;;;11.63;5.30;;;;;;;18.55;31.39;100215.66;5155801;27;20047;-79
2022/05/08 06:05:17;;;;;;;10.68;4.80;;;;;;;18.46;31.35;100207.97;5153109;27;20077;-80
2022/05/08 06:07:44;;;;;;;9.73;5.35;;;;;;;18.36;31.63;100214.34;5155549;27;20054;-79
2022/05/08 06:10:12;;;;;;;7.72;5.20;;;;;;;18.34;31.53;100210.88;5156055;27;20054;-78
2022/05/08 06:12:40;;;;;;;10.52;5.28;;;;;;;18.31;31.90;100210.97;5156251;27;20047;-79
2022/05/08 06:15:08;;;;;;;10.43;5.57;;;;;;;18.13;31.67;100215.75;5156203;27;20137;-79
2022/05/08 06:17:36;;;;;;;11.25;5.88;;;;;;;18.12;31.76;100202.56;5155873;27;20043;-80
2022/05/08 06:20:04;;;;;;;10.07;5.35;;;;;;;18.34;31.29;100206.44;5154698;27;20518;-81
2022/05/08 06:22:36;;;;;;;10.68;5.25;;;;;;;18.38;31.47;100212.56;5155414;27;20134;-79
2022/05/08 06:25:03;;;;;;;10.68;5.13;;;;;;;18.48;31.35;100185.00;5147882;27;20054;-79
2022/05/08 06:27:30;;;;;;;8.88;5.35;;;;;;;18.55;31.45;100202.44;5138648;27;20148;-79
2022/05/08 06:29:59;;;;;;;10.27;5.30;;;;;;;18.61;31.36;100191.72;5134982;27;20150;-78
2022/05/08 06:32:26;;;;;;;11.63;5.55;;;;;;;18.61;31.39;100188.22;5134874;27;20062;-80
2022/05/08 06:34:54;;;;;;;12.65;5.53;;;;;;;18.71;31.49;100197.63;5146874;27;20594;-81
2022/05/08 06:37:22;;;;;;;11.32;5.47;;;;;;;18.81;31.25;100193.03;5155060;27;20042;-78
2022/05/08 06:39:49;;;;;;;8.88;5.80;;;;;;;18.88;31.16;100196.38;5155978;27;20046;-80
2022/05/08 06:42:15;;;;;;;12.57;5.22;;;;;;;18.90;31.06;100202.50;5155663;27;20055;-81
2022/05/08 06:44:47;;;;;;;13.70;5.43;;;;;;;19.06;31.06;100195.94;5136859;27;20057;-79
2022/05/08 06:47:15;;;;;;;9.18;5.10;;;;;;;19.08;30.88;100193.22;5155314;27;20490;-78
2022/05/08 06:49:42;;;;;;;11.35;5.78;;;;;;;19.39;30.16;100186.19;5155190;27;20084;-79
2022/05/08 06:52:09;;;;;;;11.98;5.03;;;;;;;19.76;29.86;100192.25;5153108;27;20047;-80
2022/05/08 06:54:36;;;;;;;11.88;6.05;;;;;;;19.93;29.49;100184.66;5154670;27;20137;-77
2022/05/08 06:57:05;;;;;;;9.02;5.18;;;;;;;19.91;29.66;100188.28;5139105;27;20057;-78
2022/05/08 07:02:17;;;;;;;12.20;5.50;;;;;;;19.87;29.53;100182.19;5135072;27;20088;-81
2022/05/08 07:04:45;;;;;;;10.70;5.57;;;;;;;20.12;29.52;100178.81;5133075;27;20070;-83
2022/05/08 07:07:13;;;;;;;11.80;5.75;;;;;;;20.04;29.68;100176.38;5147096;27;20083;-80
2022/05/08 07:09:42;;;;;;;12.20;5.95;;;;;;;20.07;29.26;100181.63;5154405;27;20050;-79
2022/05/08 07:12:10;;;;;;;12.20;8.32;;;;;;;20.13;29.27;100164.63;5144624;27;20043;-78
2022/05/08 07:14:40;;;;;;;10.48;5.30;;;;;;;20.52;28.72;100158.97;5154157;27;20070;-79
2022/05/08 07:17:17;;;;;;;12.85;5.35;;;;;;;20.40;28.63;100157.59;5152404;27;20039;-79
2022/05/08 07:19:46;;;;;;;10.45;5.40;;;;;;;20.51;28.57;100163.41;5154248;27;20084;-78
2022/05/08 07:22:17;;;;;;;11.98;5.70;;;;;;;20.70;28.65;100168.16;5154911;27;20174;-79
2022/05/08 07:24:45;;;;;;;13.90;6.43;;;;;;;20.72;28.75;100166.31;5154208;27;20560;-79
2022/05/08 07:27:11;;;;;;;12.13;5.90;;;;;;;20.75;28.48;100172.38;5154516;27;20103;-81
2022/05/08 07:29:42;;;;;;;11.85;6.25;;;;;;;20.84;28.17;100173.84;5154132;27;20043;-79
2022/05/08 07:32:10;;;;;;;10.57;5.63;;;;;;;20.94;28.04;100180.56;5151457;27;20043;-78
2022/05/08 07:37:28;;;;;;;13.68;5.90;;;;;;;21.11;27.58;100168.50;5152495;27;20422;-78
2022/05/08 07:39:55;;;;;;;11.13;5.85;;;;;;;21.46;27.39;100185.88;5154783;27;20066;-80
2022/05/08 07:42:22;;;;;;;14.00;5.88;;;;;;;21.50;26.91;100168.88;5154155;27;20535;-79
2022/05/08 07:44:50;;;;;;;11.98;6.50;;;;;;;21.18;27.24;100178.84;5153791;27;20054;-78
2022/05/08 07:47:22;;;;;;;11.93;5.43;;;;;;;20.99;27.54;100178.66;5144117;27;20097;-78
2022/05/08 07:49:49;;;;;;;9.48;6.07;;;;;;;20.71;27.70;100161.91;5154008;27;20917;-80
2022/05/08 07:52:16;;;;;;;18.35;6.47;;;;;;;20.21;28.33;100154.66;5153906;27;20053;-79
2022/05/08 07:54:45;;;;;;;13.45;6.05;;;;;;;20.04;28.77;100171.09;5151242;27;20457;-78
2022/05/08 07:57:14;;;;;;;;;;;;;;;19.53;29.73;100169.03;5154081;27;20491;-78
2022/05/08 07:59:41;;;;;;;16.88;7.03;;;;;;;19.44;29.40;100148.97;5153402;27;19971;-79
2022/05/08 08:02:08;;;;;;;25.02;7.22;;;;;;;19.37;29.45;100147.41;5153908;27;20554;-79
2022/05/08 08:04:36;;;;;;;12.48;6.65;;;;;;;19.30;29.26;100133.47;5153653;27;20051;-78
2022/05/08 08:07:04;;;;;;;12.57;6.65;;;;;;;19.33;29.56;100148.41;5153578;27;20051;-84
2022/05/08 08:09:31;;;;;;;15.23;6.88;;;;;;;19.51;29.82;100145.25;5153680;27;20107;-83
2022/05/08 08:11:58;;;;;;;12.07;6.30;;;;;;;19.52;29.67;100148.75;5143887;27;20138;-79
2022/05/08 08:14:25;;;;;;;11.10;6.25;;;;;;;19.49;29.93;100146.19;5153264;27;20051;-80
2022/05/08 08:17:13;;;;;;;13.95;6.82;;;;;;;19.65;29.68;100121.84;5153215;27;20043;-83
2022/05/08 08:19:40;;;;;;;13.05;6.13;;;;;;;19.90;28.86;100128.25;5153187;27;20518;-84
2022/05/08 08:22:07;;;;;;;17.40;6.90;;;;;;;20.34;28.41;100137.41;5153829;27;20111;-82
2022/05/08 08:24:36;;;;;;;12.80;6.15;;;;;;;20.66;28.04;100143.50;5153092;27;20058;-80
2022/05/08 08:27:04;;;;;;;12.75;6.43;;;;;;;20.71;27.79;100130.06;5150881;27;20142;-79
2022/05/08 08:29:31;;;;;;;14.15;6.35;;;;;;;20.59;28.23;100142.81;5152624;27;20598;-79
2022/05/08 08:31:59;;;;;;;14.15;6.30;;;;;;;20.36;27.99;100132.94;5157988;27;20590;-80
2022/05/08 08:34:26;;;;;;;14.65;6.93;;;;;;;20.25;28.06;100132.41;5158302;27;20415;-78
2022/05/08 08:36:58;;;;;;;14.73;6.97;;;;;;;20.36;28.25;100134.72;5154303;27;20054;-79
2022/05/08 08:39:25;;;;;;;14.43;6.95;;;;;;;20.50;28.04;100105.97;5150848;27;20047;-80
2022/05/08 08:42:21;;;;;;;12.98;6.93;;;;;;;20.52;28.15;100129.75;5145303;27;20491;-80
2022/05/08 08:48:03;;;;;;;15.27;7.07;;;;;;;20.46;28.33;100113.16;5136149;27;20043;-85
2022/05/08 08:50:32;;;;;;;16.92;7.72;;;;;;;20.70;27.92;100113.28;5135402;27;20084;-83
2022/05/08 08:53:05;;;;;;;14.90;8.02;;;;;;;20.85;27.75;100126.00;5136885;27;20133;-80
2022/05/08 08:55:33;;;;;;;17.63;7.03;;;;;;;20.88;27.61;100087.84;5136203;27;20136;-86
2022/05/08 08:58:00;;;;;;;16.77;7.63;;;;;;;20.75;27.52;100107.78;5134760;27;20055;-82
2022/05/08 09:00:28;;;;;;;16.75;7.72;;;;;;;20.74;27.33;100075.09;5117928;27;20502;-81
2022/05/08 09:02:55;;;;;;;20.98;7.22;;;;;;;20.86;27.05;100114.47;5136285;27;20145;-85
2022/05/08 09:05:24;;;;;;;14.85;8.00;;;;;;;20.59;26.51;100072.97;5136506;27;20051;-80
2022/05/08 09:07:53;;;;;;;15.38;7.75;;;;;;;20.46;26.76;100080.44;5135739;27;20042;-81
2022/05/08 09:10:25;;;;;;;13.73;7.13;;;;;;;20.26;26.66;100083.75;5134936;27;20047;-79
2022/05/08 09:12:52;;;;;;;13.65;7.38;;;;;;;20.31;26.73;100087.13;5141208;27;20042;-80
2022/05/08 09:15:21;;;;;;;17.08;6.65;;;;;;;20.27;26.64;100087.28;5155728;27;20042;-79
2022/05/08 09:17:57;;;;;;;16.00;7.13;;;;;;;20.26;26.71;100091.69;5155557;27;20554;-79
2022/05/08 09:20:34;;;;;;;18.35;7.50;;;;;;;20.13;27.14;100085.94;5155791;27;20087;-79
2022/05/08 09:23:15;;;;;;;19.70;7.88;;;;;;;20.01;28.04;100097.81;5155757;27;20049;-82
2022/05/08 09:25:50;;;;;;;12.02;7.68;;;;;;;20.04;27.43;100103.00;5139923;27;20109;-78
2022/05/08 09:28:41;;;;;;;16.35;7.43;;;;;;;19.84;27.58;100102.78;5153101;27;20042;-79
2022/05/08 09:31:15;;;;;;;16.42;7.70;;;;;;;19.69;27.75;100090.84;5154253;27;20042;-80
2022/05/08 09:33:43;;;;;;;13.00;6.95;;;;;;;19.60;27.87;100094.63;5154412;27;20061;-77
2022/05/08 09:36:21;;;;;;;14.55;7.10;;;;;;;19.61;28.05;100090.19;5151546;27;20503;-78
2022/05/08 09:38:48;;;;;;;14.65;7.28;;;;;;;19.60;28.09;100089.34;5154591;27;20057;-76
2022/05/08 09:41:18;;;;;;;19.25;7.43;;;;;;;19.59;28.14;100092.88;5141183;27;20049;-78
2022/05/08 09:43:45;;;;;;;;;;;;;;;19.40;28.14;100076.69;5154605;27;20051;-76
2022/05/08 09:46:12;;;;;;;22.67;7.10;;;;;;;19.51;28.28;100081.66;5154464;27;19931;-77
2022/05/08 09:48:40;;;;;;;22.02;7.38;;;;;;;19.54;28.33;100083.34;5154334;27;20050;-76
2022/05/08 09:51:11;;;;;;;15.10;7.20;;;;;;;19.46;28.51;100078.28;5154345;27;20081;-77
2022/05/08 09:53:40;;;;;;;16.30;6.90;;;;;;;19.52;28.23;100077.22;5154941;27;20061;-77
2022/05/08 09:56:11;;;;;;;15.02;6.88;;;;;;;19.63;28.32;100083.94;5150830;27;20118;-76
2022/05/08 09:58:43;;;;;;;16.45;6.80;;;;;;;19.74;28.14;100077.47;5151079;27;20053;-77
2022/05/08 10:01:13;;;;;;;12.63;7.30;;;;;;;19.95;27.94;100067.97;5154169;27;20077;-78
2022/05/08 10:03:43;;;;;;;24.58;7.07;;;;;;;20.37;27.26;100078.09;5151447;27;20046;-77
2022/05/08 10:06:11;;;;;;;17.23;6.28;;;;;;;20.45;27.23;100071.59;5153704;27;20070;-78
2022/05/08 10:08:41;;;;;;;26.02;8.13;;;;;;;20.48;27.11;100069.75;5153677;27;20095;-78
2022/05/08 10:14:05;;;;;;;16.48;6.68;;;;;;;20.73;26.79;100053.91;5150700;27;20050;-80
2022/05/08 10:16:52;;;;;;;11.93;6.05;;;;;;;20.76;26.58;100056.47;5151826;27;20129;-78
2022/05/08 10:19:22;;;;;;;12.27;6.55;;;;;;;20.63;27.11;100051.56;5150574;27;20189;-80
2022/05/08 10:22:09;;;;;;;17.02;6.68;;;;;;;20.49;27.47;100058.25;5151518;27;20077;-77
2022/05/08 10:24:43;;;;;;;15.43;7.10;;;;;;;20.50;27.63;100055.56;5153034;27;20085;-77
2022/05/08 10:27:28;;;;;;;13.93;6.10;;;;;;;20.32;27.67;100046.41;5152437;27;20141;-78
2022/05/08 10:29:57;;;;;;;24.38;7.38;;;;;;;20.12;28.03;100020.56;5152355;27;20423;-77
2022/05/08 10:32:32;;;;;;;15.65;6.72;;;;;;;20.08;28.41;100024.25;5155372;27;20471;-77
2022/05/08 10:35:20;;;;;;;13.55;6.88;;;;;;;20.18;28.30;100023.03;5155292;27;20107;-77
2022/05/08 10:37:52;;;;;;;15.10;6.47;;;;;;;20.25;27.90;100010.41;5154987;27;20046;-76
2022/05/08 10:40:23;;;;;;;20.42;6.50;;;;;;;20.48;27.74;100008.72;5155308;27;20051;-77
2022/05/08 10:42:55;;;;;;;11.90;6.75;;;;;;;20.69;27.93;100008.00;5155000;27;20042;-78
2022/05/08 10:45:31;;;;;;;12.30;6.25;;;;;;;20.81;27.45;100012.88;5155326;27;20464;-78
2022/05/08 10:48:01;;;;;;;13.93;6.68;;;;;;;20.86;27.43;99986.16;5154884;27;20086;-77
2022/05/08 10:50:28;;;;;;;14.37;6.13;;;;;;;20.57;27.71;99998.72;5155090;27;20050;-77
2022/05/08 10:52:57;;;;;;;21.55;6.38;;;;;;;20.67;27.72;99991.28;5153727;27;20099;-77
2022/05/08 10:55:25;;;;;;;23.17;7.17;;;;;;;21.11;27.55;99990.56;5154543;27;20479;-77
2022/05/08 10:57:54;;;;;;;12.57;5.95;;;;;;;21.23;27.30;99960.84;5153489;27;20199;-77
2022/05/08 11:00:29;;;;;;;24.77;6.53;;;;;;;21.12;27.03;99963.06;5155071;27;20146;-78
2022/05/08 11:02:58;;;;;;;14.32;6.30;;;;;;;21.01;27.23;99979.41;5154876;27;20137;-77
2022/05/08 11:05:32;;;;;;;14.07;6.03;;;;;;;20.72;27.63;99985.81;5146888;27;20514;-79
2022/05/08 11:08:02;;;;;;;16.38;6.45;;;;;;;20.65;27.42;99951.53;5153545;27;20054;-78
2022/05/08 11:10:37;;;;;;;11.07;5.78;;;;;;;20.75;27.49;99957.34;5154586;27;20051;-78
2022/05/08 11:13:09;;;;;;;13.38;6.13;;;;;;;21.14;26.88;99955.91;5154662;27;20115;-77
2022/05/08 11:15:45;;;;;;;9.48;5.97;;;;;;;21.28;26.96;99954.44;5154206;27;20061;-80
2022/05/08 11:18:24;;;;;;;12.10;6.10;;;;;;;21.43;26.74;99950.34;5149182;27;20059;-78
2022/05/08 11:20:57;;;;;;;16.50;6.75;;;;;;;21.55;26.43;99951.63;5152027;27;20047;-78
2022/05/08 11:23:26;;;;;;;10.52;6.05;;;;;;;21.53;26.46;99942.91;5154607;27;20363;-77
2022/05/08 11:26:11;;;;;;;13.50;6.47;;;;;;;21.51;26.25;99919.94;5154353;27;20062;-78
2022/05/08 11:28:50;;;;;;;17.15;6.45;;;;;;;21.40;26.34;99939.84;5153028;27;20419;-78
2022/05/08 11:31:19;;;;;;;15.00;6.13;;;;;;;21.43;26.26;99933.56;5154519;27;20085;-78
2022/05/08 11:36:37;;;;;;;13.30;6.68;;;;;;;21.71;26.02;99922.66;5154407;27;20488;-79
2022/05/08 11:39:12;;;;;;;15.75;8.35;;;;;;;21.76;25.81;99918.00;5147166;27;20142;-78
2022/05/08 11:41:43;;;;;;;16.88;6.93;;;;;;;21.66;25.70;99912.22;5136467;27;20556;-78
2022/05/08 11:44:13;;;;;;;13.43;6.25;;;;;;;21.57;26.00;99925.00;5138267;27;20073;-79
2022/05/08 11:46:45;;;;;;;15.10;6.18;;;;;;;21.43;25.89;99913.16;5142742;27;20047;-79
2022/05/08 11:49:15;;;;;;;13.50;6.13;;;;;;;21.42;26.23;99923.84;5140737;27;20054;-79
2022/05/08 11:51:44;;;;;;;14.70;6.83;;;;;;;21.48;26.24;99913.81;5133347;27;20051;-77
2022/05/08 11:54:30;;;;;;;13.00;6.53;;;;;;;21.60;25.99;99909.81;5136041;27;20051;-78
2022/05/08 11:57:16;;;;;;;15.05;6.68;;;;;;;21.62;25.90;99902.63;5152724;27;20095;-77
2022/05/08 11:59:49;;;;;;;14.35;6.78;;;;;;;21.81;25.66;99892.09;5152026;27;20078;-78